Time;durP1;ratioP1;P1;durP2;ratioP2;P2;SDS_P1;SDS_P2;PMS_P1;PMS_P2;Temp;Humidity;BMP_temperature;BMP_pressure;BME280_temperature;BME280_humidity;BME280_pressure;Samples;Min_cycle;Max_cycle;Signal;HPM_P1;HPM_P2
2020/12/13 00:00:57;;;;;;;43.10;21.77;;;4.60;99.90;;;;;;10305300;28;20219;-83
2020/12/13 00:06:19;;;;;;;37.77;21.33;;;4.60;99.90;;;;;;10304135;28;20188;-83
2020/12/13 00:11:41;;;;;;;36.50;21.07;;;4.60;99.90;;;;;;10304903;28;20231;-84
2020/12/13 00:17:03;;;;;;;35.47;20.97;;;4.60;99.90;;;;;;10320250;28;20200;-84
2020/12/13 00:22:25;;;;;;;40.17;22.10;;;4.70;99.90;;;;;;10305949;28;20587;-83
2020/12/13 00:27:47;;;;;;;42.23;21.13;;;4.70;99.90;;;;;;10305260;28;20207;-82
2020/12/13 00:33:09;;;;;;;37.37;21.73;;;4.70;99.90;;;;;;10302862;28;20220;-84
2020/12/13 00:38:31;;;;;;;43.57;22.23;;;4.50;99.90;;;;;;10263737;29;20203;-82
2020/12/13 00:43:53;;;;;;;40.60;21.67;;;4.60;99.90;;;;;;10276693;28;20227;-83
2020/12/13 00:49:16;;;;;;;39.00;20.73;;;4.60;99.90;;;;;;10302620;28;20207;-84
2020/12/13 00:54:37;;;;;;;41.53;21.63;;;4.50;99.90;;;;;;10300138;28;20299;-84
2020/12/13 01:00:00;;;;;;;38.37;21.53;;;4.40;99.90;;;;;;10287482;28;20191;-83
2020/12/13 01:05:21;;;;;;;39.80;22.87;;;4.60;99.90;;;;;;10302360;28;20246;-83
2020/12/13 01:10:43;;;;;;;36.87;20.40;;;4.60;99.90;;;;;;10297787;28;20207;-81
2020/12/13 01:16:05;;;;;;;37.33;20.97;;;4.50;99.90;;;;;;10296850;28;20196;-82
2020/12/13 01:21:28;;;;;;;39.10;21.50;;;4.60;99.90;;;;;;10297245;28;20212;-83
2020/12/13 01:26:50;;;;;;;39.57;20.50;;;4.60;99.90;;;;;;10298279;28;20192;-82
2020/12/13 01:32:13;;;;;;;39.13;20.20;;;4.50;99.90;;;;;;10298916;28;20219;-83
2020/12/13 01:37:34;;;;;;;34.13;20.40;;;4.40;99.90;;;;;;10313594;28;20204;-83
2020/12/13 01:42:56;;;;;;;35.57;21.13;;;4.70;99.90;;;;;;10305019;28;20222;-83
2020/12/13 01:48:19;;;;;;;35.73;19.90;;;4.80;99.90;;;;;;10302149;28;20195;-83
2020/12/13 01:53:43;;;;;;;35.37;21.07;;;4.60;99.90;;;;;;10301249;28;20659;-84
2020/12/13 01:59:06;;;;;;;38.63;21.73;;;4.60;99.90;;;;;;10301152;28;20198;-83
2020/12/13 02:04:32;;;;;;;36.37;19.93;;;4.50;99.90;;;;;;10301496;28;20216;-83
2020/12/13 02:09:54;;;;;;;39.70;22.00;;;4.40;99.90;;;;;;10301669;28;20200;-84
2020/12/13 02:15:15;;;;;;;39.17;21.17;;;4.40;99.90;;;;;;10316263;28;20215;-83
2020/12/13 02:20:39;;;;;;;44.20;22.73;;;4.30;99.90;;;;;;10308209;28;20679;-83
2020/12/13 02:26:02;;;;;;;41.80;21.87;;;4.50;99.90;;;;;;10300703;28;20199;-83
2020/12/13 02:31:24;;;;;;;41.03;21.83;;;4.40;99.90;;;;;;10302227;28;20219;-83
2020/12/13 02:36:45;;;;;;;43.93;23.23;;;4.50;99.90;;;;;;10299124;28;20195;-81
2020/12/13 02:42:08;;;;;;;40.80;21.83;;;4.50;99.90;;;;;;10278758;28;20756;-83
2020/12/13 02:47:29;;;;;;;43.97;22.80;;;4.50;99.90;;;;;;10301284;28;20211;-84
2020/12/13 02:52:51;;;;;;;49.30;24.03;;;4.60;99.90;;;;;;10300590;28;20223;-84
2020/12/13 02:58:13;;;;;;;42.50;23.30;;;4.70;99.90;;;;;;10305187;28;20683;-83
2020/12/13 03:03:35;;;;;;;47.83;24.53;;;4.70;99.90;;;;;;10307077;28;20215;-84
2020/12/13 03:08:57;;;;;;;42.37;22.07;;;4.70;99.90;;;;;;10306191;28;20686;-84
2020/12/13 03:14:19;;;;;;;45.90;21.73;;;4.70;99.90;;;;;;10308308;28;20219;-82
2020/12/13 03:19:41;;;;;;;46.53;24.57;;;4.60;99.90;;;;;;10334103;28;20697;-83
2020/12/13 03:25:03;;;;;;;45.20;23.73;;;4.50;99.90;;;;;;10274685;28;20226;-82
2020/12/13 03:30:25;;;;;;;43.70;24.00;;;4.40;99.90;;;;;;10307086;28;20196;-83
2020/12/13 03:35:47;;;;;;;46.23;23.30;;;4.60;99.90;;;;;;10304705;28;20194;-82
2020/12/13 03:41:09;;;;;;;45.60;23.60;;;4.50;99.90;;;;;;10305564;28;20584;-84
2020/12/13 03:46:31;;;;;;;42.37;23.43;;;4.60;99.90;;;;;;10308237;28;20192;-83
2020/12/13 03:51:53;;;;;;;42.53;22.43;;;4.60;99.90;;;;;;10319673;28;20226;-83
2020/12/13 03:57:14;;;;;;;44.43;23.23;;;4.50;99.90;;;;;;10310099;28;20691;-83
2020/12/13 04:02:37;;;;;;;45.93;24.13;;;4.50;99.90;;;;;;10305735;28;20235;-83
2020/12/13 04:07:59;;;;;;;48.87;23.57;;;4.40;99.90;;;;;;10308426;28;20196;-80
2020/12/13 04:13:20;;;;;;;47.00;23.23;;;4.40;99.90;;;;;;10312920;28;20211;-84
2020/12/13 04:18:43;;;;;;;47.43;23.23;;;4.50;99.90;;;;;;10322824;28;20588;-81
2020/12/13 04:24:04;;;;;;;48.93;24.50;;;4.40;99.90;;;;;;10343979;28;20208;-82
2020/12/13 04:29:26;;;;;;;47.33;24.47;;;4.60;99.90;;;;;;10264194;28;20593;-81
2020/12/13 04:34:49;;;;;;;43.97;23.63;;;4.50;99.90;;;;;;10280364;28;20222;-81
2020/12/13 04:40:11;;;;;;;44.97;21.87;;;4.50;99.90;;;;;;10304373;28;20192;-81
2020/12/13 04:45:34;;;;;;;46.73;23.90;;;4.50;99.90;;;;;;10303881;28;20605;-81
2020/12/13 04:50:59;;;;;;;46.27;22.27;;;4.40;99.90;;;;;;10297067;28;20188;-81
2020/12/13 04:56:23;;;;;;;47.80;23.77;;;4.40;99.90;;;;;;10295857;28;20203;-83
2020/12/13 05:01:45;;;;;;;45.00;23.07;;;4.50;99.90;;;;;;10297359;28;20216;-83
2020/12/13 05:07:09;;;;;;;50.63;24.67;;;4.50;99.90;;;;;;10299499;28;20207;-83
2020/12/13 05:12:30;;;;;;;49.10;24.30;;;4.50;99.90;;;;;;10298789;28;20220;-83
2020/12/13 05:17:52;;;;;;;49.57;24.70;;;4.60;99.90;;;;;;10309884;28;20218;-82
2020/12/13 05:23:16;;;;;;;51.60;23.90;;;5.00;99.90;;;;;;10339992;28;20219;-82
2020/12/13 05:28:46;;;;;;;53.97;25.33;;;5.00;99.90;;;;;;10340633;28;20686;-84
2020/12/13 05:34:15;;;;;;;53.53;23.13;;;4.90;99.90;;;;;;10334112;28;20212;-84
2020/12/13 05:39:38;;;;;;;49.60;24.20;;;4.70;99.90;;;;;;10301917;28;20192;-83
2020/12/13 05:45:20;;;;;;;51.17;24.73;;;4.70;99.90;;;;;;10301065;28;20584;-83
2020/12/13 05:50:56;;;;;;;47.63;22.57;;;4.60;99.90;;;;;;10300844;28;20214;-83
2020/12/13 05:56:20;;;;;;;51.20;24.23;;;4.60;99.90;;;;;;10300790;28;20200;-84
2020/12/13 06:01:44;;;;;;;47.90;22.77;;;4.50;99.90;;;;;;10299968;28;20211;-83
2020/12/13 06:07:05;;;;;;;43.50;22.67;;;4.40;99.90;;;;;;10299149;28;20196;-82
2020/12/13 06:12:31;;;;;;;47.77;23.77;;;4.40;99.90;;;;;;10300397;28;20236;-83
2020/12/13 06:17:53;;;;;;;51.73;23.47;;;4.50;99.90;;;;;;10311185;28;20553;-82
2020/12/13 06:23:18;;;;;;;47.53;22.50;;;4.50;99.90;;;;;;10303882;28;20716;-84
2020/12/13 06:28:41;;;;;;;47.73;22.20;;;4.60;99.90;;;;;;10299957;28;20198;-83
2020/12/13 06:34:05;;;;;;;47.70;21.70;;;4.50;99.90;;;;;;10308211;28;20215;-83
2020/12/13 06:39:26;;;;;;;53.47;23.17;;;4.40;99.90;;;;;;10308876;28;20188;-83
2020/12/13 06:45:03;;;;;;;52.43;23.13;;;4.50;99.90;;;;;;10300872;28;20576;-82
2020/12/13 06:50:25;;;;;;;52.53;24.07;;;4.50;99.90;;;;;;10279611;28;20192;-83
2020/12/13 06:55:47;;;;;;;47.77;22.83;;;4.70;99.90;;;;;;10307326;28;20196;-83
2020/12/13 07:01:17;;;;;;;55.40;24.10;;;4.70;99.90;;;;;;10308935;28;20212;-82
2020/12/13 07:06:50;;;;;;;45.93;22.37;;;4.70;99.90;;;;;;10307143;28;20224;-83
2020/12/13 07:12:12;;;;;;;50.10;22.47;;;4.80;99.90;;;;;;10309471;28;20224;-83
2020/12/13 07:17:37;;;;;;;54.63;23.97;;;4.90;99.90;;;;;;10320722;28;20613;-83
2020/12/13 07:22:59;;;;;;;47.60;22.83;;;4.90;99.90;;;;;;10352004;28;20218;-83
2020/12/13 07:28:23;;;;;;;48.60;24.03;;;5.00;99.90;;;;;;10350366;28;20689;-84
2020/12/13 07:33:46;;;;;;;45.83;21.77;;;5.20;99.90;;;;;;10347122;28;20770;-83
2020/12/13 07:39:11;;;;;;;49.23;23.00;;;5.10;99.90;;;;;;10336946;28;20695;-84
2020/12/13 07:44:33;;;;;;;49.67;22.40;;;4.90;99.90;;;;;;10306881;28;20314;-81
2020/12/13 07:50:05;;;;;;;46.20;21.37;;;4.90;99.90;;;;;;10310716;28;20203;-81
2020/12/13 07:55:27;;;;;;;47.53;22.73;;;4.90;99.90;;;;;;10270344;29;20209;-83
2020/12/13 08:00:49;;;;;;;46.17;23.13;;;5.00;99.90;;;;;;10272624;29;20196;-83
2020/12/13 08:06:15;;;;;;;47.07;21.13;;;5.00;99.90;;;;;;10283402;28;20288;-86
2020/12/13 08:11:37;;;;;;;39.23;19.93;;;5.00;99.90;;;;;;10306372;28;20227;-83
2020/12/13 08:16:59;;;;;;;38.83;19.03;;;4.80;99.90;;;;;;10305760;28;20286;-86
